Kenyon, Minnesota
Current Conditions -  °F | °C
As of 11:34 PM on Saturday 22 Nov 2014 (Local Time) from KSYN Reporting Station
Haze Haze  
Wind Chill:   Ceiling: 600
Heat Index:   Visibility: 5mi
Dew Point:   Wind: 12mph
Humidity: 90%   Direction: 190°S
Pressure: 29.52"   Gusts: 18mph
Location:  44.27°N, 92.99°W
Report Text: KSYN 230534Z AUTO 19010G16KT 5SM BR OVC006 09/07 A2952 RMK AO2 T00850070
Loading
Personal Weather Stations






























Interactive Weather Map New forecast layout! Learn more

10-Day Weather Forecast

Advertisements
Track Severe Weather on mobile